sensor_id;sensor_type;location;lat;lon;timestamp;P1;durP1;ratioP1;P2;durP2;ratioP2
19566;SDS011;9930;49.240;8.548;2023-01-01T00:01:08;168.43;;;150.10;;
19566;SDS011;9930;49.240;8.548;2023-01-01T00:03:35;178.30;;;159.40;;
19566;SDS011;9930;49.240;8.548;2023-01-01T00:06:12;187.98;;;167.75;;
19566;SDS011;9930;49.240;8.548;2023-01-01T00:08:38;172.57;;;152.40;;
19566;SDS011;9930;49.240;8.548;2023-01-01T00:11:07;168.30;;;149.50;;
19566;SDS011;9930;49.240;8.548;2023-01-01T00:13:34;175.52;;;156.45;;
19566;SDS011;9930;49.240;8.548;2023-01-01T00:16:07;182.68;;;162.95;;
19566;SDS011;9930;49.240;8.548;2023-01-01T00:18:38;174.90;;;156.05;;
19566;SDS011;9930;49.240;8.548;2023-01-01T00:21:05;182.90;;;163.55;;
19566;SDS011;9930;49.240;8.548;2023-01-01T00:23:38;191.85;;;171.57;;
19566;SDS011;9930;49.240;8.548;2023-01-01T00:26:08;205.57;;;184.10;;
19566;SDS011;9930;49.240;8.548;2023-01-01T00:28:44;181.60;;;162.35;;
19566;SDS011;9930;49.240;8.548;2023-01-01T00:31:16;175.43;;;156.73;;
19566;SDS011;9930;49.240;8.548;2023-01-01T00:33:49;164.45;;;147.00;;
19566;SDS011;9930;49.240;8.548;2023-01-01T00:36:17;139.95;;;125.05;;
19566;SDS011;9930;49.240;8.548;2023-01-01T00:38:49;128.07;;;114.32;;
19566;SDS011;9930;49.240;8.548;2023-01-01T00:41:15;117.88;;;105.47;;
19566;SDS011;9930;49.240;8.548;2023-01-01T00:43:42;125.97;;;113.15;;
19566;SDS011;9930;49.240;8.548;2023-01-01T00:46:10;109.10;;;98.03;;
19566;SDS011;9930;49.240;8.548;2023-01-01T00:48:39;93.53;;;84.10;;
19566;SDS011;9930;49.240;8.548;2023-01-01T00:51:07;98.82;;;88.57;;
19566;SDS011;9930;49.240;8.548;2023-01-01T00:53:34;103.88;;;93.15;;
19566;SDS011;9930;49.240;8.548;2023-01-01T00:56:00;76.88;;;68.88;;
19566;SDS011;9930;49.240;8.548;2023-01-01T00:58:26;85.57;;;76.50;;
19566;SDS011;9930;49.240;8.548;2023-01-01T01:00:52;79.20;;;70.70;;
19566;SDS011;9930;49.240;8.548;2023-01-01T01:03:22;81.43;;;73.00;;
19566;SDS011;9930;49.240;8.548;2023-01-01T01:05:58;83.18;;;74.55;;
19566;SDS011;9930;49.240;8.548;2023-01-01T01:08:37;68.60;;;61.47;;
19566;SDS011;9930;49.240;8.548;2023-01-01T01:11:07;67.25;;;60.20;;
19566;SDS011;9930;49.240;8.548;2023-01-01T01:13:37;63.35;;;56.47;;
19566;SDS011;9930;49.240;8.548;2023-01-01T01:16:11;64.65;;;57.58;;
19566;SDS011;9930;49.240;8.548;2023-01-01T01:18:52;61.28;;;54.58;;
19566;SDS011;9930;49.240;8.548;2023-01-01T01:21:25;60.83;;;54.58;;
19566;SDS011;9930;49.240;8.548;2023-01-01T01:23:55;62.15;;;55.42;;
19566;SDS011;9930;49.240;8.548;2023-01-01T01:26:30;59.42;;;53.20;;
19566;SDS011;9930;49.240;8.548;2023-01-01T01:28:57;59.33;;;53.08;;
19566;SDS011;9930;49.240;8.548;2023-01-01T01:31:26;61.88;;;55.28;;
19566;SDS011;9930;49.240;8.548;2023-01-01T01:33:55;63.67;;;56.80;;
19566;SDS011;9930;49.240;8.548;2023-01-01T01:36:22;70.43;;;62.78;;
19566;SDS011;9930;49.240;8.548;2023-01-01T01:38:51;68.50;;;61.20;;
19566;SDS011;9930;49.240;8.548;2023-01-01T01:41:19;67.13;;;59.95;;
19566;SDS011;9930;49.240;8.548;2023-01-01T01:43:58;70.72;;;63.17;;
19566;SDS011;9930;49.240;8.548;2023-01-01T01:46:42;72.70;;;64.82;;
19566;SDS011;9930;49.240;8.548;2023-01-01T01:49:30;71.57;;;63.90;;
19566;SDS011;9930;49.240;8.548;2023-01-01T01:51:59;70.45;;;62.90;;
19566;SDS011;9930;49.240;8.548;2023-01-01T01:54:25;72.25;;;64.47;;
19566;SDS011;9930;49.240;8.548;2023-01-01T01:56:58;64.53;;;57.65;;
19566;SDS011;9930;49.240;8.548;2023-01-01T01:59:34;50.90;;;45.35;;
19566;SDS011;9930;49.240;8.548;2023-01-01T02:02:11;46.45;;;41.55;;
19566;SDS011;9930;49.240;8.548;2023-01-01T02:04:47;43.10;;;38.58;;
19566;SDS011;9930;49.240;8.548;2023-01-01T02:07:17;46.08;;;41.20;;
19566;SDS011;9930;49.240;8.548;2023-01-01T02:09:52;44.75;;;40.08;;
19566;SDS011;9930;49.240;8.548;2023-01-01T02:12:22;41.10;;;36.72;;
19566;SDS011;9930;49.240;8.548;2023-01-01T02:14:51;34.72;;;31.05;;
19566;SDS011;9930;49.240;8.548;2023-01-01T02:17:30;32.78;;;29.20;;
19566;SDS011;9930;49.240;8.548;2023-01-01T02:20:23;32.90;;;29.38;;
19566;SDS011;9930;49.240;8.548;2023-01-01T02:32:17;28.08;;;25.08;;
19566;SDS011;9930;49.240;8.548;2023-01-01T02:34:57;25.00;;;22.25;;
19566;SDS011;9930;49.240;8.548;2023-01-01T02:37:53;19.83;;;17.73;;
19566;SDS011;9930;49.240;8.548;2023-01-01T02:40:25;18.50;;;16.55;;
19566;SDS011;9930;49.240;8.548;2023-01-01T02:42:53;16.73;;;14.98;;
19566;SDS011;9930;49.240;8.548;2023-01-01T02:45:22;16.70;;;15.00;;
19566;SDS011;9930;49.240;8.548;2023-01-01T02:47:48;16.73;;;15.10;;
19566;SDS011;9930;49.240;8.548;2023-01-01T02:50:18;15.75;;;14.15;;
19566;SDS011;9930;49.240;8.548;2023-01-01T02:56:14;14.50;;;13.00;;
19566;SDS011;9930;49.240;8.548;2023-01-01T02:59:07;13.55;;;12.15;;
19566;SDS011;9930;49.240;8.548;2023-01-01T03:10:10;9.10;;;8.20;;
19566;SDS011;9930;49.240;8.548;2023-01-01T03:13:03;10.10;;;8.25;;
19566;SDS011;9930;49.240;8.548;2023-01-01T03:18:28;8.40;;;7.60;;
19566;SDS011;9930;49.240;8.548;2023-01-01T03:21:46;9.50;;;8.10;;
19566;SDS011;9930;49.240;8.548;2023-01-01T03:24:32;7.95;;;7.13;;
19566;SDS011;9930;49.240;8.548;2023-01-01T03:27:07;7.95;;;7.10;;
19566;SDS011;9930;49.240;8.548;2023-01-01T03:30:03;7.97;;;6.43;;
19566;SDS011;9930;49.240;8.548;2023-01-01T03:32:36;7.68;;;6.97;;
19566;SDS011;9930;49.240;8.548;2023-01-01T03:35:47;7.35;;;6.65;;
19566;SDS011;9930;49.240;8.548;2023-01-01T03:38:24;7.03;;;6.43;;
19566;SDS011;9930;49.240;8.548;2023-01-01T03:41:02;7.20;;;6.50;;
19566;SDS011;9930;49.240;8.548;2023-01-01T03:46:43;7.93;;;7.13;;
19566;SDS011;9930;49.240;8.548;2023-01-01T03:49:11;7.03;;;6.32;;
19566;SDS011;9930;49.240;8.548;2023-01-01T03:54:37;7.70;;;6.65;;
19566;SDS011;9930;49.240;8.548;2023-01-01T04:03:28;7.60;;;6.85;;
19566;SDS011;9930;49.240;8.548;2023-01-01T04:05:57;7.78;;;6.97;;
19566;SDS011;9930;49.240;8.548;2023-01-01T04:08:26;8.32;;;7.30;;
19566;SDS011;9930;49.240;8.548;2023-01-01T04:10:57;7.85;;;6.93;;
19566;SDS011;9930;49.240;8.548;2023-01-01T04:13:47;7.88;;;6.93;;
19566;SDS011;9930;49.240;8.548;2023-01-01T04:16:17;7.82;;;7.13;;
19566;SDS011;9930;49.240;8.548;2023-01-01T04:18:54;8.70;;;7.80;;
19566;SDS011;9930;49.240;8.548;2023-01-01T04:21:22;8.50;;;7.65;;
19566;SDS011;9930;49.240;8.548;2023-01-01T04:23:50;8.50;;;7.60;;
19566;SDS011;9930;49.240;8.548;2023-01-01T04:26:17;8.93;;;7.60;;
19566;SDS011;9930;49.240;8.548;2023-01-01T04:28:47;9.30;;;8.32;;
19566;SDS011;9930;49.240;8.548;2023-01-01T04:31:17;8.50;;;7.60;;
19566;SDS011;9930;49.240;8.548;2023-01-01T04:33:47;9.10;;;7.75;;
19566;SDS011;9930;49.240;8.548;2023-01-01T04:36:17;10.40;;;8.98;;
19566;SDS011;9930;49.240;8.548;2023-01-01T04:38:47;9.07;;;8.20;;
19566;SDS011;9930;49.240;8.548;2023-01-01T04:41:17;9.80;;;8.80;;
19566;SDS011;9930;49.240;8.548;2023-01-01T04:43:47;9.23;;;8.32;;
19566;SDS011;9930;49.240;8.548;2023-01-01T04:46:18;8.77;;;7.68;;
19566;SDS011;9930;49.240;8.548;2023-01-01T04:48:48;9.38;;;8.45;;
19566;SDS011;9930;49.240;8.548;2023-01-01T04:51:18;9.18;;;8.27;;
19566;SDS011;9930;49.240;8.548;2023-01-01T04:53:55;9.32;;;8.23;;
19566;SDS011;9930;49.240;8.548;2023-01-01T04:56:23;9.15;;;8.02;;
19566;SDS011;9930;49.240;8.548;2023-01-01T04:58:51;9.10;;;8.15;;
19566;SDS011;9930;49.240;8.548;2023-01-01T05:01:22;9.25;;;8.25;;
19566;SDS011;9930;49.240;8.548;2023-01-01T05:03:54;9.18;;;8.23;;
19566;SDS011;9930;49.240;8.548;2023-01-01T05:06:22;8.95;;;8.05;;
19566;SDS011;9930;49.240;8.548;2023-01-01T05:08:52;9.35;;;8.45;;
19566;SDS011;9930;49.240;8.548;2023-01-01T05:11:23;9.25;;;8.35;;
19566;SDS011;9930;49.240;8.548;2023-01-01T05:13:53;9.00;;;8.10;;
19566;SDS011;9930;49.240;8.548;2023-01-01T05:16:23;9.52;;;8.52;;
19566;SDS011;9930;49.240;8.548;2023-01-01T05:18:58;9.30;;;8.18;;
19566;SDS011;9930;49.240;8.548;2023-01-01T05:21:25;8.90;;;8.00;;
19566;SDS011;9930;49.240;8.548;2023-01-01T05:23:56;9.48;;;8.57;;
19566;SDS011;9930;49.240;8.548;2023-01-01T05:26:26;9.07;;;8.18;;
19566;SDS011;9930;49.240;8.548;2023-01-01T05:28:55;9.10;;;8.20;;
19566;SDS011;9930;49.240;8.548;2023-01-01T05:31:28;8.52;;;7.32;;
19566;SDS011;9930;49.240;8.548;2023-01-01T05:34:00;8.70;;;7.90;;
19566;SDS011;9930;49.240;8.548;2023-01-01T05:36:31;8.98;;;8.07;;
19566;SDS011;9930;49.240;8.548;2023-01-01T05:39:02;8.77;;;7.80;;
19566;SDS011;9930;49.240;8.548;2023-01-01T05:41:33;8.45;;;7.60;;
19566;SDS011;9930;49.240;8.548;2023-01-01T05:44:03;7.70;;;7.00;;
19566;SDS011;9930;49.240;8.548;2023-01-01T05:46:35;7.95;;;7.15;;
19566;SDS011;9930;49.240;8.548;2023-01-01T05:49:01;8.68;;;7.85;;
19566;SDS011;9930;49.240;8.548;2023-01-01T05:51:28;8.73;;;7.88;;
19566;SDS011;9930;49.240;8.548;2023-01-01T05:53:55;9.13;;;8.23;;
19566;SDS011;9930;49.240;8.548;2023-01-01T05:56:22;8.88;;;8.07;;
19566;SDS011;9930;49.240;8.548;2023-01-01T05:58:52;9.57;;;8.57;;
19566;SDS011;9930;49.240;8.548;2023-01-01T06:01:22;9.13;;;8.20;;
19566;SDS011;9930;49.240;8.548;2023-01-01T06:03:53;10.63;;;8.82;;
19566;SDS011;9930;49.240;8.548;2023-01-01T06:06:23;9.85;;;8.82;;
19566;SDS011;9930;49.240;8.548;2023-01-01T06:08:53;9.68;;;8.55;;
19566;SDS011;9930;49.240;8.548;2023-01-01T06:11:25;9.93;;;8.50;;
19566;SDS011;9930;49.240;8.548;2023-01-01T06:13:55;9.85;;;8.85;;
19566;SDS011;9930;49.240;8.548;2023-01-01T06:16:26;10.63;;;9.35;;
19566;SDS011;9930;49.240;8.548;2023-01-01T06:18:54;10.07;;;9.00;;
19566;SDS011;9930;49.240;8.548;2023-01-01T06:21:22;10.52;;;9.40;;
19566;SDS011;9930;49.240;8.548;2023-01-01T06:23:54;9.85;;;8.88;;
19566;SDS011;9930;49.240;8.548;2023-01-01T06:26:25;10.43;;;9.30;;
19566;SDS011;9930;49.240;8.548;2023-01-01T06:28:57;10.20;;;9.10;;
19566;SDS011;9930;49.240;8.548;2023-01-01T06:31:25;10.05;;;9.05;;
19566;SDS011;9930;49.240;8.548;2023-01-01T06:33:52;9.63;;;8.30;;
19566;SDS011;9930;49.240;8.548;2023-01-01T06:36:22;10.00;;;9.00;;
19566;SDS011;9930;49.240;8.548;2023-01-01T06:38:55;9.35;;;8.45;;
19566;SDS011;9930;49.240;8.548;2023-01-01T06:41:23;9.48;;;8.55;;
19566;SDS011;9930;49.240;8.548;2023-01-01T06:43:55;8.48;;;7.68;;
19566;SDS011;9930;49.240;8.548;2023-01-01T06:46:32;8.88;;;8.07;;
19566;SDS011;9930;49.240;8.548;2023-01-01T06:49:00;7.93;;;7.13;;
19566;SDS011;9930;49.240;8.548;2023-01-01T06:51:30;8.02;;;7.20;;
19566;SDS011;9930;49.240;8.548;2023-01-01T06:54:09;8.40;;;7.50;;
19566;SDS011;9930;49.240;8.548;2023-01-01T06:56:38;7.85;;;7.03;;
19566;SDS011;9930;49.240;8.548;2023-01-01T06:59:04;8.18;;;7.38;;
19566;SDS011;9930;49.240;8.548;2023-01-01T07:01:31;7.60;;;6.88;;
19566;SDS011;9930;49.240;8.548;2023-01-01T07:04:04;6.40;;;5.90;;
19566;SDS011;9930;49.240;8.548;2023-01-01T07:06:34;6.40;;;5.80;;
19566;SDS011;9930;49.240;8.548;2023-01-01T07:09:00;5.90;;;5.35;;
19566;SDS011;9930;49.240;8.548;2023-01-01T07:11:27;6.65;;;5.95;;
19566;SDS011;9930;49.240;8.548;2023-01-01T07:13:54;6.78;;;5.90;;
19566;SDS011;9930;49.240;8.548;2023-01-01T07:16:21;7.15;;;6.45;;
19566;SDS011;9930;49.240;8.548;2023-01-01T07:18:50;6.63;;;5.95;;
19566;SDS011;9930;49.240;8.548;2023-01-01T07:21:30;8.02;;;6.15;;
19566;SDS011;9930;49.240;8.548;2023-01-01T07:24:03;6.57;;;5.97;;
19566;SDS011;9930;49.240;8.548;2023-01-01T07:26:30;6.70;;;6.00;;
19566;SDS011;9930;49.240;8.548;2023-01-01T07:28:57;7.28;;;5.90;;
19566;SDS011;9930;49.240;8.548;2023-01-01T07:31:28;5.50;;;5.00;;
19566;SDS011;9930;49.240;8.548;2023-01-01T07:33:54;6.03;;;5.43;;
19566;SDS011;9930;49.240;8.548;2023-01-01T07:36:21;5.78;;;5.13;;
19566;SDS011;9930;49.240;8.548;2023-01-01T07:38:47;5.70;;;5.20;;
19566;SDS011;9930;49.240;8.548;2023-01-01T07:41:17;5.32;;;4.82;;
19566;SDS011;9930;49.240;8.548;2023-01-01T07:43:51;6.55;;;5.10;;
19566;SDS011;9930;49.240;8.548;2023-01-01T07:46:18;6.60;;;5.07;;
19566;SDS011;9930;49.240;8.548;2023-01-01T07:48:47;5.05;;;4.45;;
19566;SDS011;9930;49.240;8.548;2023-01-01T07:51:14;6.43;;;5.80;;
19566;SDS011;9930;49.240;8.548;2023-01-01T07:53:39;7.00;;;6.35;;
19566;SDS011;9930;49.240;8.548;2023-01-01T07:56:05;5.18;;;4.78;;
19566;SDS011;9930;49.240;8.548;2023-01-01T07:58:32;4.63;;;4.15;;
19566;SDS011;9930;49.240;8.548;2023-01-01T08:00:59;4.50;;;4.10;;
19566;SDS011;9930;49.240;8.548;2023-01-01T08:03:28;4.82;;;4.32;;
19566;SDS011;9930;49.240;8.548;2023-01-01T08:05:53;4.75;;;3.92;;
19566;SDS011;9930;49.240;8.548;2023-01-01T08:08:21;4.25;;;3.63;;
19566;SDS011;9930;49.240;8.548;2023-01-01T08:10:47;5.43;;;4.03;;
19566;SDS011;9930;49.240;8.548;2023-01-01T08:13:23;3.95;;;3.55;;
19566;SDS011;9930;49.240;8.548;2023-01-01T08:15:54;4.20;;;3.65;;
19566;SDS011;9930;49.240;8.548;2023-01-01T08:18:23;4.53;;;4.13;;
19566;SDS011;9930;49.240;8.548;2023-01-01T08:20:50;5.22;;;4.20;;
19566;SDS011;9930;49.240;8.548;2023-01-01T08:23:25;5.45;;;4.95;;
19566;SDS011;9930;49.240;8.548;2023-01-01T08:25:52;6.35;;;5.78;;
19566;SDS011;9930;49.240;8.548;2023-01-01T08:28:19;5.35;;;4.85;;
19566;SDS011;9930;49.240;8.548;2023-01-01T08:30:47;5.45;;;4.32;;
19566;SDS011;9930;49.240;8.548;2023-01-01T08:33:17;4.13;;;3.22;;
19566;SDS011;9930;49.240;8.548;2023-01-01T08:35:51;3.95;;;3.38;;
19566;SDS011;9930;49.240;8.548;2023-01-01T08:38:22;3.42;;;3.13;;
19566;SDS011;9930;49.240;8.548;2023-01-01T08:40:52;4.30;;;3.75;;
19566;SDS011;9930;49.240;8.548;2023-01-01T08:43:18;4.57;;;3.65;;
19566;SDS011;9930;49.240;8.548;2023-01-01T08:45:49;4.38;;;3.90;;
19566;SDS011;9930;49.240;8.548;2023-01-01T08:48:19;3.58;;;3.28;;
19566;SDS011;9930;49.240;8.548;2023-01-01T08:50:53;3.92;;;3.53;;
19566;SDS011;9930;49.240;8.548;2023-01-01T08:53:27;4.00;;;3.42;;
19566;SDS011;9930;49.240;8.548;2023-01-01T08:55:58;3.80;;;3.25;;
19566;SDS011;9930;49.240;8.548;2023-01-01T08:58:28;4.22;;;3.08;;
19566;SDS011;9930;49.240;8.548;2023-01-01T09:00:55;3.63;;;2.65;;
19566;SDS011;9930;49.240;8.548;2023-01-01T09:03:26;5.57;;;3.40;;
19566;SDS011;9930;49.240;8.548;2023-01-01T09:05:54;4.65;;;3.55;;
19566;SDS011;9930;49.240;8.548;2023-01-01T09:08:21;4.97;;;3.80;;
19566;SDS011;9930;49.240;8.548;2023-01-01T09:10:51;3.97;;;3.58;;
19566;SDS011;9930;49.240;8.548;2023-01-01T09:13:24;4.00;;;3.38;;
19566;SDS011;9930;49.240;8.548;2023-01-01T09:15:50;3.58;;;3.28;;
19566;SDS011;9930;49.240;8.548;2023-01-01T09:18:17;3.65;;;3.35;;
19566;SDS011;9930;49.240;8.548;2023-01-01T09:20:52;4.43;;;3.20;;
19566;SDS011;9930;49.240;8.548;2023-01-01T09:23:21;4.45;;;3.53;;
19566;SDS011;9930;49.240;8.548;2023-01-01T09:25:49;4.97;;;3.35;;
19566;SDS011;9930;49.240;8.548;2023-01-01T09:28:15;4.25;;;3.60;;
19566;SDS011;9930;49.240;8.548;2023-01-01T09:30:43;4.68;;;3.80;;
19566;SDS011;9930;49.240;8.548;2023-01-01T09:33:11;4.10;;;3.65;;
19566;SDS011;9930;49.240;8.548;2023-01-01T09:35:39;4.15;;;3.58;;
19566;SDS011;9930;49.240;8.548;2023-01-01T09:38:10;4.40;;;3.42;;
19566;SDS011;9930;49.240;8.548;2023-01-01T09:46:51;4.05;;;3.65;;
19566;SDS011;9930;49.240;8.548;2023-01-01T09:49:28;5.07;;;3.67;;
19566;SDS011;9930;49.240;8.548;2023-01-01T09:52:04;4.25;;;3.75;;
19566;SDS011;9930;49.240;8.548;2023-01-01T09:54:36;3.75;;;3.30;;
19566;SDS011;9930;49.240;8.548;2023-01-01T09:57:31;3.17;;;2.85;;
19566;SDS011;9930;49.240;8.548;2023-01-01T09:59:58;4.97;;;3.50;;
19566;SDS011;9930;49.240;8.548;2023-01-01T10:08:17;5.13;;;3.65;;
19566;SDS011;9930;49.240;8.548;2023-01-01T10:13:45;4.03;;;3.28;;
19566;SDS011;9930;49.240;8.548;2023-01-01T10:19:17;4.00;;;3.60;;
19566;SDS011;9930;49.240;8.548;2023-01-01T10:22:10;3.67;;;3.35;;
19566;SDS011;9930;49.240;8.548;2023-01-01T10:24:46;4.40;;;3.20;;
19566;SDS011;9930;49.240;8.548;2023-01-01T10:30:36;5.38;;;3.85;;
19566;SDS011;9930;49.240;8.548;2023-01-01T10:33:09;4.18;;;3.20;;
19566;SDS011;9930;49.240;8.548;2023-01-01T10:35:42;3.78;;;3.22;;
19566;SDS011;9930;49.240;8.548;2023-01-01T10:38:23;3.85;;;3.20;;
19566;SDS011;9930;49.240;8.548;2023-01-01T10:40:51;4.78;;;3.22;;
19566;SDS011;9930;49.240;8.548;2023-01-01T10:43:23;4.53;;;2.80;;
19566;SDS011;9930;49.240;8.548;2023-01-01T10:45:49;4.25;;;3.10;;
19566;SDS011;9930;49.240;8.548;2023-01-01T10:48:20;5.65;;;3.28;;
19566;SDS011;9930;49.240;8.548;2023-01-01T10:50:57;3.92;;;2.83;;
19566;SDS011;9930;49.240;8.548;2023-01-01T10:56:11;3.28;;;2.30;;
19566;SDS011;9930;49.240;8.548;2023-01-01T10:58:45;3.30;;;2.35;;
19566;SDS011;9930;49.240;8.548;2023-01-01T11:01:29;3.20;;;2.50;;
19566;SDS011;9930;49.240;8.548;2023-01-01T11:04:02;2.85;;;2.53;;
19566;SDS011;9930;49.240;8.548;2023-01-01T11:06:52;4.65;;;2.90;;
19566;SDS011;9930;49.240;8.548;2023-01-01T11:12:01;3.72;;;2.50;;
19566;SDS011;9930;49.240;8.548;2023-01-01T11:14:41;5.43;;;2.80;;
19566;SDS011;9930;49.240;8.548;2023-01-01T11:17:22;4.03;;;2.40;;
19566;SDS011;9930;49.240;8.548;2023-01-01T11:20:15;3.25;;;2.75;;
19566;SDS011;9930;49.240;8.548;2023-01-01T11:22:48;3.83;;;2.85;;
19566;SDS011;9930;49.240;8.548;2023-01-01T11:25:27;2.65;;;2.38;;
19566;SDS011;9930;49.240;8.548;2023-01-01T11:30:56;2.83;;;2.22;;
19566;SDS011;9930;49.240;8.548;2023-01-01T11:33:25;3.22;;;2.47;;
19566;SDS011;9930;49.240;8.548;2023-01-01T11:35:55;4.43;;;2.35;;
19566;SDS011;9930;49.240;8.548;2023-01-01T11:38:26;2.95;;;2.42;;
19566;SDS011;9930;49.240;8.548;2023-01-01T11:40:55;2.90;;;2.60;;
19566;SDS011;9930;49.240;8.548;2023-01-01T11:43:38;3.88;;;2.58;;
19566;SDS011;9930;49.240;8.548;2023-01-01T11:46:17;3.40;;;2.58;;
19566;SDS011;9930;49.240;8.548;2023-01-01T11:48:49;5.40;;;2.80;;
19566;SDS011;9930;49.240;8.548;2023-01-01T11:51:31;4.07;;;2.67;;
19566;SDS011;9930;49.240;8.548;2023-01-01T11:54:12;6.63;;;4.65;;
19566;SDS011;9930;49.240;8.548;2023-01-01T11:56:48;3.67;;;3.38;;
19566;SDS011;9930;49.240;8.548;2023-01-01T11:59:25;4.15;;;3.20;;
19566;SDS011;9930;49.240;8.548;2023-01-01T12:02:08;4.43;;;2.65;;
19566;SDS011;9930;49.240;8.548;2023-01-01T12:04:46;3.05;;;2.60;;
19566;SDS011;9930;49.240;8.548;2023-01-01T12:07:34;4.63;;;2.63;;
19566;SDS011;9930;49.240;8.548;2023-01-01T12:12:38;5.57;;;2.92;;
19566;SDS011;9930;49.240;8.548;2023-01-01T12:21:06;3.33;;;2.80;;
19566;SDS011;9930;49.240;8.548;2023-01-01T12:23:43;3.20;;;2.90;;
19566;SDS011;9930;49.240;8.548;2023-01-01T12:26:14;3.75;;;3.00;;
19566;SDS011;9930;49.240;8.548;2023-01-01T12:40:49;3.15;;;2.30;;
19566;SDS011;9930;49.240;8.548;2023-01-01T12:52:52;3.47;;;2.67;;
19566;SDS011;9930;49.240;8.548;2023-01-01T12:59:05;3.75;;;2.20;;
19566;SDS011;9930;49.240;8.548;2023-01-01T13:01:41;2.88;;;2.47;;
19566;SDS011;9930;49.240;8.548;2023-01-01T13:04:13;2.85;;;2.45;;
19566;SDS011;9930;49.240;8.548;2023-01-01T13:07:01;3.22;;;2.75;;
19566;SDS011;9930;49.240;8.548;2023-01-01T13:09:36;4.75;;;2.85;;
19566;SDS011;9930;49.240;8.548;2023-01-01T13:12:10;2.70;;;1.90;;
19566;SDS011;9930;49.240;8.548;2023-01-01T13:14:42;2.67;;;2.35;;
19566;SDS011;9930;49.240;8.548;2023-01-01T13:17:16;3.92;;;2.50;;
19566;SDS011;9930;49.240;8.548;2023-01-01T13:19:57;3.55;;;2.42;;
19566;SDS011;9930;49.240;8.548;2023-01-01T13:22:53;3.45;;;2.22;;
19566;SDS011;9930;49.240;8.548;2023-01-01T13:25:24;3.03;;;2.38;;
19566;SDS011;9930;49.240;8.548;2023-01-01T13:33:17;3.05;;;2.40;;
19566;SDS011;9930;49.240;8.548;2023-01-01T13:38:47;3.45;;;2.42;;
19566;SDS011;9930;49.240;8.548;2023-01-01T13:51:55;4.13;;;3.50;;
19566;SDS011;9930;49.240;8.548;2023-01-01T14:03:41;4.60;;;3.83;;
19566;SDS011;9930;49.240;8.548;2023-01-01T14:06:39;6.10;;;4.80;;
19566;SDS011;9930;49.240;8.548;2023-01-01T14:09:13;6.07;;;4.45;;
19566;SDS011;9930;49.240;8.548;2023-01-01T14:11:41;5.53;;;4.13;;
19566;SDS011;9930;49.240;8.548;2023-01-01T14:14:24;4.38;;;3.92;;
19566;SDS011;9930;49.240;8.548;2023-01-01T14:16:58;6.40;;;4.63;;
19566;SDS011;9930;49.240;8.548;2023-01-01T14:19:32;5.05;;;4.38;;
19566;SDS011;9930;49.240;8.548;2023-01-01T14:21:59;5.78;;;4.70;;
19566;SDS011;9930;49.240;8.548;2023-01-01T14:24:29;5.20;;;4.63;;
19566;SDS011;9930;49.240;8.548;2023-01-01T14:26:56;6.68;;;5.90;;
19566;SDS011;9930;49.240;8.548;2023-01-01T14:29:28;9.25;;;6.40;;
19566;SDS011;9930;49.240;8.548;2023-01-01T14:31:59;6.05;;;5.20;;
19566;SDS011;9930;49.240;8.548;2023-01-01T14:34:40;8.95;;;6.80;;
19566;SDS011;9930;49.240;8.548;2023-01-01T14:37:18;7.55;;;5.75;;
19566;SDS011;9930;49.240;8.548;2023-01-01T14:42:56;7.55;;;5.80;;
19566;SDS011;9930;49.240;8.548;2023-01-01T14:45:35;7.43;;;5.32;;
19566;SDS011;9930;49.240;8.548;2023-01-01T14:48:15;7.60;;;5.95;;
19566;SDS011;9930;49.240;8.548;2023-01-01T14:50:48;6.75;;;5.63;;
19566;SDS011;9930;49.240;8.548;2023-01-01T14:53:16;6.90;;;5.88;;
19566;SDS011;9930;49.240;8.548;2023-01-01T14:55:52;6.97;;;6.13;;
19566;SDS011;9930;49.240;8.548;2023-01-01T14:58:19;8.55;;;5.80;;
19566;SDS011;9930;49.240;8.548;2023-01-01T15:00:51;6.15;;;5.40;;
19566;SDS011;9930;49.240;8.548;2023-01-01T15:03:21;9.48;;;7.03;;
19566;SDS011;9930;49.240;8.548;2023-01-01T15:06:00;7.90;;;5.88;;
19566;SDS011;9930;49.240;8.548;2023-01-01T15:08:27;10.85;;;8.13;;
19566;SDS011;9930;49.240;8.548;2023-01-01T15:10:53;9.23;;;8.07;;
19566;SDS011;9930;49.240;8.548;2023-01-01T15:13:24;12.57;;;9.80;;
19566;SDS011;9930;49.240;8.548;2023-01-01T15:15:55;17.83;;;13.23;;
19566;SDS011;9930;49.240;8.548;2023-01-01T15:24:12;10.20;;;8.25;;
19566;SDS011;9930;49.240;8.548;2023-01-01T15:29:19;10.30;;;7.95;;
19566;SDS011;9930;49.240;8.548;2023-01-01T15:32:07;9.60;;;7.95;;
19566;SDS011;9930;49.240;8.548;2023-01-01T15:34:50;9.82;;;7.88;;
19566;SDS011;9930;49.240;8.548;2023-01-01T15:42:41;9.57;;;8.13;;
19566;SDS011;9930;49.240;8.548;2023-01-01T15:45:20;9.80;;;8.80;;
19566;SDS011;9930;49.240;8.548;2023-01-01T15:47:53;8.65;;;7.75;;
19566;SDS011;9930;49.240;8.548;2023-01-01T15:50:40;10.18;;;8.82;;
19566;SDS011;9930;49.240;8.548;2023-01-01T15:53:26;10.82;;;9.75;;
19566;SDS011;9930;49.240;8.548;2023-01-01T15:56:01;10.55;;;9.55;;
19566;SDS011;9930;49.240;8.548;2023-01-01T15:58:39;9.40;;;8.50;;
19566;SDS011;9930;49.240;8.548;2023-01-01T16:01:12;12.57;;;10.07;;
19566;SDS011;9930;49.240;8.548;2023-01-01T16:03:45;10.13;;;8.65;;
19566;SDS011;9930;49.240;8.548;2023-01-01T16:06:15;9.48;;;8.57;;
19566;SDS011;9930;49.240;8.548;2023-01-01T16:08:43;10.30;;;9.10;;
19566;SDS011;9930;49.240;8.548;2023-01-01T16:11:09;10.20;;;9.20;;
19566;SDS011;9930;49.240;8.548;2023-01-01T16:13:37;10.20;;;8.30;;
19566;SDS011;9930;49.240;8.548;2023-01-01T16:16:03;8.93;;;8.07;;
19566;SDS011;9930;49.240;8.548;2023-01-01T16:18:46;16.05;;;14.35;;
19566;SDS011;9930;49.240;8.548;2023-01-01T16:21:12;27.42;;;24.58;;
19566;SDS011;9930;49.240;8.548;2023-01-01T16:23:40;26.23;;;23.42;;
19566;SDS011;9930;49.240;8.548;2023-01-01T16:26:06;24.20;;;21.73;;
19566;SDS011;9930;49.240;8.548;2023-01-01T16:28:32;18.33;;;16.42;;
19566;SDS011;9930;49.240;8.548;2023-01-01T16:31:00;16.33;;;14.68;;
19566;SDS011;9930;49.240;8.548;2023-01-01T16:33:26;16.02;;;14.32;;
19566;SDS011;9930;49.240;8.548;2023-01-01T16:35:54;15.50;;;13.65;;
19566;SDS011;9930;49.240;8.548;2023-01-01T16:38:22;14.25;;;12.85;;
19566;SDS011;9930;49.240;8.548;2023-01-01T16:40:52;12.60;;;11.38;;
19566;SDS011;9930;49.240;8.548;2023-01-01T16:43:19;13.20;;;11.88;;
19566;SDS011;9930;49.240;8.548;2023-01-01T16:45:46;14.25;;;12.45;;
19566;SDS011;9930;49.240;8.548;2023-01-01T16:48:16;14.45;;;12.95;;
19566;SDS011;9930;49.240;8.548;2023-01-01T16:50:55;15.63;;;14.10;;
19566;SDS011;9930;49.240;8.548;2023-01-01T16:53:23;18.02;;;16.13;;
19566;SDS011;9930;49.240;8.548;2023-01-01T16:55:50;18.02;;;16.23;;
19566;SDS011;9930;49.240;8.548;2023-01-01T16:58:18;17.52;;;15.75;;
19566;SDS011;9930;49.240;8.548;2023-01-01T17:00:57;16.67;;;14.98;;
19566;SDS011;9930;49.240;8.548;2023-01-01T17:03:24;17.40;;;15.60;;
19566;SDS011;9930;49.240;8.548;2023-01-01T17:05:52;17.00;;;15.27;;
19566;SDS011;9930;49.240;8.548;2023-01-01T17:08:18;16.45;;;14.77;;
19566;SDS011;9930;49.240;8.548;2023-01-01T17:10:48;16.90;;;15.13;;
19566;SDS011;9930;49.240;8.548;2023-01-01T17:13:30;13.75;;;11.65;;
19566;SDS011;9930;49.240;8.548;2023-01-01T17:15:59;11.70;;;10.50;;
19566;SDS011;9930;49.240;8.548;2023-01-01T17:18:26;10.43;;;8.38;;
19566;SDS011;9930;49.240;8.548;2023-01-01T17:20:52;8.50;;;7.68;;
19566;SDS011;9930;49.240;8.548;2023-01-01T17:23:18;9.00;;;8.10;;
19566;SDS011;9930;49.240;8.548;2023-01-01T17:25:48;10.07;;;9.05;;
19566;SDS011;9930;49.240;8.548;2023-01-01T17:28:18;8.93;;;8.02;;
19566;SDS011;9930;49.240;8.548;2023-01-01T17:30:58;10.77;;;8.73;;
19566;SDS011;9930;49.240;8.548;2023-01-01T17:33:30;9.13;;;7.70;;
19566;SDS011;9930;49.240;8.548;2023-01-01T17:35:56;11.30;;;10.20;;
19566;SDS011;9930;49.240;8.548;2023-01-01T17:38:25;11.00;;;9.88;;
19566;SDS011;9930;49.240;8.548;2023-01-01T17:41:00;9.98;;;9.07;;
19566;SDS011;9930;49.240;8.548;2023-01-01T17:43:37;10.55;;;8.82;;
19566;SDS011;9930;49.240;8.548;2023-01-01T17:46:16;10.85;;;9.82;;
19566;SDS011;9930;49.240;8.548;2023-01-01T17:48:57;11.90;;;10.70;;